createdAt,value
2024-02-13T00:01:43.928Z,2.33
2024-02-13T00:04:33.528Z,2.93
2024-02-13T00:07:21.216Z,2.67
2024-02-13T00:10:13.023Z,2.53
2024-02-13T00:13:00.651Z,2.30
2024-02-13T00:15:48.361Z,2.50
2024-02-13T00:18:35.985Z,2.93
2024-02-13T00:21:24.031Z,2.57
2024-02-13T00:24:11.562Z,3.03
2024-02-13T00:27:00.516Z,2.47
2024-02-13T00:29:48.486Z,2.70
2024-02-13T00:32:40.919Z,2.60
2024-02-13T00:35:30.850Z,2.50
2024-02-13T00:38:18.579Z,2.03
2024-02-13T00:41:06.348Z,3.40
2024-02-13T00:43:55.203Z,2.40
2024-02-13T00:46:42.776Z,2.97
2024-02-13T00:49:30.392Z,2.50
2024-02-13T00:52:18.034Z,2.90
2024-02-13T00:55:08.718Z,3.30
2024-02-13T00:57:56.234Z,2.70
2024-02-13T01:00:43.976Z,2.47
2024-02-13T01:03:32.153Z,2.20
2024-02-13T01:06:19.754Z,2.23
2024-02-13T01:09:08.403Z,2.80
2024-02-13T01:11:56.210Z,1.90
2024-02-13T01:14:43.866Z,1.97
2024-02-13T01:17:31.596Z,2.53
2024-02-13T01:20:19.840Z,1.80
2024-02-13T01:23:07.685Z,1.90
2024-02-13T01:25:55.234Z,2.23
2024-02-13T01:28:42.997Z,1.97
2024-02-13T01:31:34.318Z,2.13
2024-02-13T01:34:22.867Z,2.00
2024-02-13T01:37:10.597Z,1.73
2024-02-13T01:39:58.189Z,1.87
2024-02-13T01:42:49.949Z,2.10
2024-02-13T01:45:37.699Z,1.80
2024-02-13T01:48:28.081Z,2.20
2024-02-13T01:51:18.302Z,2.17
2024-02-13T01:54:12.023Z,2.00
2024-02-13T01:57:00.414Z,1.80
2024-02-13T01:59:48.672Z,2.13
2024-02-13T02:02:37.127Z,1.70
2024-02-13T02:05:24.742Z,1.67
2024-02-13T02:08:15.489Z,2.13
2024-02-13T02:11:04.258Z,2.17
2024-02-13T02:13:53.849Z,2.10
2024-02-13T02:16:41.398Z,1.50
2024-02-13T02:19:29.305Z,2.03
2024-02-13T02:22:16.898Z,2.60
2024-02-13T02:25:09.040Z,2.03
2024-02-13T02:27:56.896Z,3.20
2024-02-13T02:30:47.178Z,1.77
2024-02-13T02:33:34.907Z,1.60
2024-02-13T02:36:23.123Z,1.60
2024-02-13T02:39:10.697Z,1.40
2024-02-13T02:41:58.257Z,1.40
2024-02-13T02:44:45.951Z,1.73
2024-02-13T02:47:35.768Z,1.80
2024-02-13T02:50:23.883Z,1.70
2024-02-13T02:53:12.219Z,1.40
2024-02-13T02:56:00.189Z,1.80
2024-02-13T02:58:47.717Z,2.17
2024-02-13T03:01:35.683Z,2.03
2024-02-13T03:04:23.514Z,2.17
2024-02-13T03:07:11.118Z,1.50
2024-02-13T03:09:59.703Z,2.27
2024-02-13T03:12:47.780Z,1.57
2024-02-13T03:15:35.501Z,1.80
2024-02-13T03:18:26.087Z,2.10
2024-02-13T03:21:13.857Z,2.23
2024-02-13T03:24:01.440Z,2.17
2024-02-13T03:26:49.089Z,1.97
2024-02-13T03:29:37.299Z,1.83
2024-02-13T03:32:26.467Z,1.80
2024-02-13T03:35:14.849Z,2.00
2024-02-13T03:38:03.354Z,2.00
2024-02-13T03:40:50.879Z,2.53
2024-02-13T03:43:42.327Z,1.60
2024-02-13T03:46:30.017Z,1.60
2024-02-13T03:49:17.678Z,1.97
2024-02-13T03:52:05.605Z,1.83
2024-02-13T03:54:53.231Z,2.57
2024-02-13T03:57:41.585Z,1.60
2024-02-13T04:00:29.319Z,1.80
2024-02-13T04:03:16.889Z,2.00
2024-02-13T04:06:07.435Z,2.30
2024-02-13T04:08:57.402Z,1.77
2024-02-13T04:11:47.539Z,1.93
2024-02-13T04:14:36.010Z,1.90
2024-02-13T04:17:23.628Z,2.00
2024-02-13T04:20:12.695Z,1.87
2024-02-13T04:23:02.475Z,1.90
2024-02-13T04:25:50.503Z,2.30
2024-02-13T04:28:40.901Z,2.03
2024-02-13T04:31:28.894Z,1.70
2024-02-13T04:34:17.010Z,2.10
2024-02-13T04:37:04.733Z,2.87
2024-02-13T04:39:52.259Z,2.00
2024-02-13T04:42:41.037Z,1.90
2024-02-13T04:45:29.298Z,1.97
2024-02-13T04:48:17.091Z,1.80
2024-02-13T04:51:08.274Z,1.90
2024-02-13T04:53:55.994Z,2.30
2024-02-13T04:56:43.586Z,2.10
2024-02-13T04:59:38.910Z,2.60
2024-02-13T05:02:26.814Z,2.23
2024-02-13T05:05:33.828Z,2.50
2024-02-13T05:08:21.639Z,1.80
2024-02-13T05:11:09.375Z,1.97
2024-02-13T05:13:59.861Z,1.90
2024-02-13T05:16:48.703Z,2.77
2024-02-13T05:19:36.350Z,2.30
2024-02-13T05:22:23.848Z,2.00
2024-02-13T05:25:12.725Z,2.23
2024-02-13T05:28:01.517Z,2.20
2024-02-13T05:30:49.250Z,1.73
2024-02-13T05:33:37.954Z,1.70
2024-02-13T05:36:29.621Z,2.10
2024-02-13T05:39:17.236Z,1.53
2024-02-13T05:42:05.228Z,1.97
2024-02-13T05:44:52.780Z,2.00
2024-02-13T05:47:40.888Z,2.70
2024-02-13T05:50:29.410Z,3.57
2024-02-13T05:53:17.205Z,2.00
2024-02-13T05:56:05.642Z,2.37
2024-02-13T05:58:53.392Z,2.13
2024-02-13T06:01:41.040Z,3.03
2024-02-13T06:04:28.814Z,2.10
2024-02-13T06:07:16.539Z,2.50
2024-02-13T06:10:04.371Z,2.13
2024-02-13T06:12:52.344Z,1.83
2024-02-13T06:15:40.205Z,2.47
2024-02-13T06:18:27.943Z,2.13
2024-02-13T06:21:22.253Z,2.07
2024-02-13T06:24:11.320Z,2.47
2024-02-13T06:26:58.970Z,1.97
2024-02-13T06:29:46.591Z,2.10
2024-02-13T06:32:34.357Z,1.87
2024-02-13T06:35:22.011Z,2.67
2024-02-13T06:38:09.757Z,2.17
2024-02-13T06:40:59.181Z,2.30
2024-02-13T06:43:47.861Z,2.10
2024-02-13T06:46:35.435Z,2.10
2024-02-13T06:49:23.050Z,2.07
2024-02-13T06:52:11.114Z,2.73
2024-02-13T06:54:58.649Z,1.87
2024-02-13T06:57:46.250Z,2.37
2024-02-13T07:00:33.957Z,2.43
2024-02-13T07:03:22.802Z,2.13
2024-02-13T07:06:13.216Z,2.23
2024-02-13T07:09:01.385Z,2.53
2024-02-13T07:11:49.022Z,1.97
2024-02-13T07:14:36.761Z,1.90
2024-02-13T07:17:24.856Z,1.93
2024-02-13T07:20:13.017Z,2.60
2024-02-13T07:23:00.689Z,2.70
2024-02-13T07:25:49.809Z,2.57
2024-02-13T07:28:37.355Z,2.30
2024-02-13T07:31:24.887Z,2.00
2024-02-13T07:34:12.591Z,2.73
2024-02-13T07:37:00.246Z,2.73
2024-02-13T07:39:47.816Z,2.40
2024-02-13T07:42:35.418Z,2.67
2024-02-13T07:45:24.642Z,2.13
2024-02-13T07:48:13.460Z,2.13
2024-02-13T07:51:02.919Z,2.33
2024-02-13T07:53:50.596Z,2.73
2024-02-13T07:56:40.197Z,2.77
2024-02-13T07:59:27.838Z,2.27
2024-02-13T08:02:15.887Z,2.03
2024-02-13T08:05:03.737Z,3.10
2024-02-13T08:07:51.409Z,2.10
2024-02-13T08:10:39.685Z,2.37
2024-02-13T08:13:27.354Z,3.33
2024-02-13T08:16:15.429Z,2.60
2024-02-13T08:19:03.322Z,3.40
2024-02-13T08:21:51.018Z,2.57
2024-02-13T08:24:38.610Z,2.10
2024-02-13T08:27:27.020Z,1.83
2024-02-13T08:30:14.842Z,2.17
2024-02-13T08:33:03.108Z,2.23
2024-02-13T08:35:54.032Z,2.33
2024-02-13T08:38:44.758Z,2.43
2024-02-13T08:41:33.314Z,2.43
2024-02-13T08:44:20.938Z,2.33
2024-02-13T08:47:08.633Z,2.60
2024-02-13T08:49:56.755Z,2.00
2024-02-13T08:52:44.860Z,2.77
2024-02-13T08:55:32.527Z,2.10
2024-02-13T08:58:20.176Z,3.67
2024-02-13T09:01:08.090Z,2.47
2024-02-13T09:03:55.757Z,2.13
2024-02-13T09:06:43.455Z,2.47
2024-02-13T09:09:34.435Z,3.00
2024-02-13T09:12:22.188Z,2.10
2024-02-13T09:15:14.348Z,2.93
2024-02-13T09:18:02.116Z,2.17
2024-02-13T09:20:51.119Z,2.00
2024-02-13T09:23:39.017Z,2.07
2024-02-13T09:26:26.852Z,2.57
2024-02-13T09:29:14.442Z,1.57
2024-02-13T09:32:02.194Z,2.47
2024-02-13T09:34:49.887Z,1.97
2024-02-13T09:37:44.606Z,2.17
2024-02-13T09:40:33.820Z,1.80
2024-02-13T09:43:21.473Z,2.00
2024-02-13T09:46:10.731Z,1.60
2024-02-13T09:49:01.508Z,2.37
2024-02-13T09:51:54.655Z,1.63
2024-02-13T09:54:45.737Z,2.63
2024-02-13T09:57:33.774Z,2.33
2024-02-13T10:00:21.558Z,1.50
2024-02-13T10:03:09.379Z,1.43
2024-02-13T10:05:57.542Z,1.80
2024-02-13T10:08:51.267Z,1.03
2024-02-13T10:11:39.078Z,2.13
2024-02-13T10:14:26.794Z,1.83
2024-02-13T10:17:15.494Z,1.40
2024-02-13T10:20:05.130Z,1.07
2024-02-13T10:22:56.193Z,1.57
2024-02-13T10:25:48.268Z,1.70
2024-02-13T10:28:41.510Z,2.33
2024-02-13T10:31:35.860Z,1.57
2024-02-13T10:34:23.528Z,1.23
2024-02-13T10:37:13.422Z,1.63
2024-02-13T10:40:09.085Z,1.40
2024-02-13T10:42:59.646Z,1.10
2024-02-13T10:45:53.818Z,1.40
2024-02-13T10:49:02.047Z,1.10
2024-02-13T10:51:51.437Z,1.27
2024-02-13T10:54:47.440Z,1.47
2024-02-13T10:57:38.398Z,1.30
2024-02-13T11:00:27.822Z,1.40
2024-02-13T11:03:16.395Z,0.90
2024-02-13T11:06:04.399Z,1.00
2024-02-13T11:08:52.743Z,1.40
2024-02-13T11:11:46.340Z,1.67
2024-02-13T11:14:34.604Z,1.50
2024-02-13T11:17:22.247Z,0.97
2024-02-13T11:20:10.950Z,1.23
2024-02-13T11:23:01.790Z,1.10
2024-02-13T11:26:01.132Z,1.87
2024-02-13T11:28:49.989Z,1.50
2024-02-13T11:31:40.521Z,1.40
2024-02-13T11:34:44.648Z,1.70
2024-02-13T11:37:36.234Z,1.93
2024-02-13T11:40:23.949Z,1.53
2024-02-13T11:43:22.140Z,1.30
2024-02-13T11:46:09.665Z,1.37
2024-02-13T11:49:00.055Z,1.50
2024-02-13T11:51:49.199Z,1.30
2024-02-13T11:54:37.853Z,1.33
2024-02-13T11:57:28.669Z,1.73
2024-02-13T12:00:24.087Z,1.30
2024-02-13T12:03:13.131Z,1.73
2024-02-13T12:06:06.928Z,1.23
2024-02-13T12:08:55.346Z,1.27
2024-02-13T12:11:44.580Z,1.10
2024-02-13T12:14:32.510Z,1.30
2024-02-13T12:17:22.712Z,1.30
2024-02-13T12:20:20.392Z,1.10
2024-02-13T12:23:13.590Z,2.03
2024-02-13T12:26:07.993Z,1.73
2024-02-13T12:28:59.832Z,1.80
2024-02-13T12:31:48.975Z,1.13
2024-02-13T12:34:40.290Z,1.20
2024-02-13T12:37:32.340Z,0.87
2024-02-13T12:40:21.673Z,0.97
2024-02-13T12:43:09.877Z,0.90
2024-02-13T12:46:03.973Z,1.23
2024-02-13T12:48:52.813Z,1.00
2024-02-13T12:51:45.112Z,1.20
2024-02-13T12:54:36.901Z,1.60
2024-02-13T12:57:25.897Z,1.50
2024-02-13T13:00:16.132Z,1.40
2024-02-13T13:03:05.891Z,1.50
2024-02-13T13:05:53.750Z,1.30
2024-02-13T13:08:43.407Z,1.47
2024-02-13T13:11:31.389Z,1.60
2024-02-13T13:14:20.141Z,1.30
2024-02-13T13:17:08.915Z,1.60
2024-02-13T13:19:56.814Z,1.47
2024-02-13T13:22:47.785Z,1.27
2024-02-13T13:25:37.593Z,1.60
2024-02-13T13:28:27.661Z,1.37
2024-02-13T13:31:16.908Z,1.30
2024-02-13T13:34:09.317Z,1.40
2024-02-13T13:36:58.857Z,1.00
2024-02-13T13:39:46.470Z,1.10
2024-02-13T13:42:40.625Z,1.17
2024-02-13T13:45:28.641Z,1.23
2024-02-13T13:48:17.534Z,1.10
2024-02-13T13:51:05.675Z,1.20
2024-02-13T13:53:53.318Z,1.00
2024-02-13T13:56:42.074Z,1.17
2024-02-13T13:59:29.829Z,1.43
2024-02-13T14:02:17.517Z,1.60
2024-02-13T14:05:08.102Z,1.63
2024-02-13T14:07:55.632Z,1.57
2024-02-13T14:10:45.325Z,0.93
2024-02-13T14:13:34.142Z,1.20
2024-02-13T14:16:25.800Z,1.20
2024-02-13T14:19:13.506Z,1.13
2024-02-13T14:22:01.727Z,0.90
2024-02-13T14:24:49.497Z,0.83
2024-02-13T14:27:38.373Z,1.03
2024-02-13T14:30:27.116Z,1.40
2024-02-13T14:33:15.046Z,1.23
2024-02-13T14:36:04.542Z,1.00
2024-02-13T14:38:52.238Z,1.00
2024-02-13T14:41:42.679Z,1.00
2024-02-13T14:44:34.282Z,0.73
2024-02-13T14:47:23.445Z,0.93
2024-02-13T14:50:13.995Z,1.10
2024-02-13T14:53:01.703Z,0.90
2024-02-13T14:55:49.290Z,0.70
2024-02-13T14:58:39.639Z,0.80
2024-02-13T15:01:28.886Z,0.87
2024-02-13T15:04:17.266Z,1.37
2024-02-13T15:07:06.305Z,1.47
2024-02-13T15:09:53.971Z,0.83
2024-02-13T15:12:42.129Z,0.93
2024-02-13T15:15:32.531Z,0.80
2024-02-13T15:18:20.866Z,0.90
2024-02-13T15:21:08.602Z,1.23
2024-02-13T15:23:56.336Z,1.13
2024-02-13T15:26:50.389Z,1.13
2024-02-13T15:29:43.706Z,0.97
2024-02-13T15:32:31.874Z,1.00
2024-02-13T15:35:25.861Z,1.10
2024-02-13T15:38:32.344Z,1.27
2024-02-13T15:41:38.681Z,1.27
2024-02-13T15:44:44.494Z,1.60
2024-02-13T15:47:35.159Z,1.17
2024-02-13T15:50:24.315Z,1.07
2024-02-13T15:53:13.184Z,1.10
2024-02-13T15:56:01.085Z,1.17
2024-02-13T15:58:51.027Z,1.37
2024-02-13T16:01:38.596Z,0.93
2024-02-13T16:04:26.183Z,1.30
2024-02-13T16:07:16.681Z,1.20
2024-02-13T16:10:07.321Z,0.97
2024-02-13T16:12:56.413Z,1.23
2024-02-13T16:15:43.980Z,2.50
2024-02-13T16:18:31.805Z,1.00
2024-02-13T16:21:19.518Z,1.33
2024-02-13T16:24:08.405Z,1.30
2024-02-13T16:26:56.149Z,1.20
2024-02-13T16:29:43.726Z,1.30
2024-02-13T16:32:36.350Z,1.13
2024-02-13T16:35:28.103Z,1.57
2024-02-13T16:38:16.608Z,1.70
2024-02-13T16:41:04.396Z,1.30
2024-02-13T16:43:52.307Z,2.47
2024-02-13T16:46:39.848Z,2.00
2024-02-13T16:49:27.499Z,1.80
2024-02-13T16:52:15.525Z,2.13
2024-02-13T16:55:04.156Z,1.87
2024-02-13T16:57:53.278Z,2.30
2024-02-13T17:00:40.945Z,2.00
2024-02-13T17:03:28.770Z,2.30
2024-02-13T17:06:16.638Z,1.60
2024-02-13T17:09:04.757Z,2.10
2024-02-13T17:11:53.022Z,2.07
2024-02-13T17:14:41.821Z,1.90
2024-02-13T17:17:29.567Z,1.60
2024-02-13T17:20:18.533Z,1.90
2024-02-13T17:23:09.415Z,2.30
2024-02-13T17:25:56.971Z,2.10
2024-02-13T17:28:44.536Z,2.43
2024-02-13T17:31:32.218Z,2.27
2024-02-13T17:34:20.135Z,2.40
2024-02-13T17:37:08.659Z,2.50
2024-02-13T17:39:56.258Z,2.70
2024-02-13T17:42:45.435Z,2.10
2024-02-13T17:45:32.999Z,2.73
2024-02-13T17:48:21.486Z,2.10
2024-02-13T17:51:09.361Z,2.20
2024-02-13T17:53:56.980Z,2.60
2024-02-13T17:56:45.596Z,2.17
2024-02-13T17:59:35.106Z,2.30
2024-02-13T18:02:22.734Z,2.20
2024-02-13T18:05:10.807Z,2.20
2024-02-13T18:08:00.000Z,3.20
2024-02-13T18:10:47.615Z,2.27
2024-02-13T18:13:35.237Z,2.70
2024-02-13T18:16:22.757Z,2.30
2024-02-13T18:19:11.966Z,2.43
2024-02-13T18:21:59.839Z,1.80
2024-02-13T18:24:47.501Z,2.67
2024-02-13T18:27:35.092Z,2.50
2024-02-13T18:30:22.995Z,1.97
2024-02-13T18:33:10.758Z,3.10
2024-02-13T18:35:58.472Z,3.03
2024-02-13T18:38:46.621Z,2.80
2024-02-13T18:41:34.523Z,2.70
2024-02-13T18:44:23.978Z,2.60
2024-02-13T18:47:13.818Z,3.17
2024-02-13T18:50:02.623Z,2.90
2024-02-13T18:52:50.214Z,3.33
2024-02-13T18:55:38.108Z,3.13
2024-02-13T18:58:26.396Z,2.93
2024-02-13T19:01:14.004Z,2.47
2024-02-13T19:04:01.609Z,2.57
2024-02-13T19:06:50.442Z,2.50
2024-02-13T19:09:38.082Z,2.97
2024-02-13T19:12:25.733Z,2.93
2024-02-13T19:15:16.283Z,2.97
2024-02-13T19:18:04.434Z,2.83
2024-02-13T19:20:55.649Z,2.60
2024-02-13T19:23:43.278Z,3.00
2024-02-13T19:26:30.907Z,3.07
2024-02-13T19:29:18.434Z,2.70
2024-02-13T19:32:06.462Z,2.77
2024-02-13T19:34:54.057Z,3.20
2024-02-13T19:37:41.631Z,2.77
2024-02-13T19:40:29.198Z,3.50
2024-02-13T19:43:16.877Z,3.33
2024-02-13T19:46:05.046Z,2.90
2024-02-13T19:48:52.967Z,2.67
2024-02-13T19:51:40.739Z,2.93
2024-02-13T19:54:28.321Z,3.30
2024-02-13T19:57:16.362Z,2.97
2024-02-13T20:00:05.025Z,2.53
2024-02-13T20:02:52.801Z,2.60
2024-02-13T20:05:40.661Z,2.63
2024-02-13T20:08:28.355Z,3.10
2024-02-13T20:11:17.711Z,2.90
2024-02-13T20:14:05.678Z,3.43
2024-02-13T20:16:53.207Z,2.57
2024-02-13T20:19:41.560Z,3.40
2024-02-13T20:22:29.783Z,2.80
2024-02-13T20:25:17.544Z,2.63
2024-02-13T20:28:07.152Z,2.93
2024-02-13T20:30:55.590Z,3.20
2024-02-13T20:33:43.453Z,3.10
2024-02-13T20:36:31.382Z,3.23
2024-02-13T20:39:18.925Z,2.97
2024-02-13T20:42:06.612Z,2.60
2024-02-13T20:44:57.706Z,3.20
2024-02-13T20:47:47.065Z,2.77
2024-02-13T20:50:34.730Z,2.80
2024-02-13T20:53:25.631Z,2.50
2024-02-13T20:56:13.683Z,3.30
2024-02-13T20:59:01.240Z,2.80
2024-02-13T21:01:49.384Z,3.43
2024-02-13T21:04:37.221Z,3.17
2024-02-13T21:07:25.958Z,3.03
2024-02-13T21:10:13.570Z,3.20
2024-02-13T21:13:01.238Z,2.67
2024-02-13T21:15:48.802Z,2.80
2024-02-13T21:18:36.951Z,2.70
2024-02-13T21:21:43.136Z,3.90
2024-02-13T21:24:30.728Z,3.60
2024-02-13T21:27:18.529Z,2.87
2024-02-13T21:30:07.736Z,2.83
2024-02-13T21:32:55.439Z,2.60
2024-02-13T21:35:43.066Z,3.00
2024-02-13T21:38:30.678Z,4.07
2024-02-13T21:41:18.280Z,2.83
2024-02-13T21:44:06.018Z,3.43
2024-02-13T21:46:56.581Z,3.33
2024-02-13T21:49:44.205Z,2.63
2024-02-13T21:52:31.797Z,2.90
2024-02-13T21:55:19.336Z,2.83
2024-02-13T21:58:06.927Z,2.70
2024-02-13T22:00:54.593Z,2.90
2024-02-13T22:03:42.656Z,2.90
2024-02-13T22:06:30.748Z,3.83
2024-02-13T22:09:18.561Z,4.43
2024-02-13T22:12:08.139Z,2.83
2024-02-13T22:14:55.785Z,3.33
2024-02-13T22:17:43.519Z,3.50
2024-02-13T22:20:35.116Z,2.87
2024-02-13T22:23:22.989Z,3.60
2024-02-13T22:26:11.016Z,3.90
2024-02-13T22:28:58.599Z,3.60
2024-02-13T22:31:46.232Z,3.50
2024-02-13T22:34:33.842Z,4.13
2024-02-13T22:37:21.539Z,3.23
2024-02-13T22:40:09.800Z,3.90
2024-02-13T22:42:57.329Z,3.20
2024-02-13T22:45:44.931Z,2.80
2024-02-13T22:48:32.548Z,3.30
2024-02-13T22:51:20.208Z,2.90
2024-02-13T22:54:07.901Z,3.27
2024-02-13T22:56:57.713Z,3.47
2024-02-13T22:59:45.419Z,3.00
2024-02-13T23:02:33.043Z,4.10
2024-02-13T23:05:20.746Z,3.07
2024-02-13T23:08:09.523Z,2.93
2024-02-13T23:10:57.564Z,2.90
2024-02-13T23:13:49.564Z,3.30
2024-02-13T23:16:41.894Z,2.70
2024-02-13T23:19:29.424Z,3.60
2024-02-13T23:22:17.048Z,5.03
2024-02-13T23:25:06.607Z,3.00
2024-02-13T23:27:54.289Z,3.20
2024-02-13T23:30:44.447Z,3.83
2024-02-13T23:33:33.089Z,3.87
2024-02-13T23:36:21.293Z,3.30
2024-02-13T23:39:09.807Z,3.83
2024-02-13T23:41:57.460Z,3.90
2024-02-13T23:44:45.700Z,4.57
2024-02-13T23:47:33.320Z,3.33
2024-02-13T23:50:21.423Z,4.37
2024-02-13T23:53:09.214Z,4.57
2024-02-13T23:55:56.885Z,3.87
2024-02-13T23:58:44.580Z,3.63
